sensor_id;sensor_type;location;lat;lon;timestamp;noise_LAeq;noise_LA_min;noise_LA_max;noise_LA01;noise_LA95
69609;Laerm;56815;52.320;4.858;2022-09-09T00:00:00;34.50;30.42;49.00;;
69609;Laerm;56815;52.320;4.858;2022-09-09T00:00:16;32.44;30.37;35.15;;
69609;Laerm;56815;52.320;4.858;2022-09-09T00:00:29;32.68;30.39;35.09;;
69609;Laerm;56815;52.320;4.858;2022-09-09T00:00:46;34.04;31.53;37.38;;
69609;Laerm;56815;52.320;4.858;2022-09-09T00:01:03;32.73;30.59;38.00;;
69609;Laerm;56815;52.320;4.858;2022-09-09T00:01:20;33.43;31.09;44.75;;
69609;Laerm;56815;52.320;4.858;2022-09-09T00:02:20;33.11;31.30;37.80;;
69609;Laerm;56815;52.320;4.858;2022-09-09T00:02:31;32.87;30.52;36.73;;
69609;Laerm;56815;52.320;4.858;2022-09-09T00:02:47;32.49;30.61;35.64;;
69609;Laerm;56815;52.320;4.858;2022-09-09T00:03:12;33.60;31.00;39.11;;
69609;Laerm;56815;52.320;4.858;2022-09-09T00:03:26;33.07;31.04;37.66;;
69609;Laerm;56815;52.320;4.858;2022-09-09T00:04:15;33.23;31.30;35.20;;
69609;Laerm;56815;52.320;4.858;2022-09-09T00:04:31;33.46;31.40;36.69;;
69609;Laerm;56815;52.320;4.858;2022-09-09T00:04:41;33.38;31.46;36.49;;
69609;Laerm;56815;52.320;4.858;2022-09-09T00:05:41;31.92;30.49;33.89;;
69609;Laerm;56815;52.320;4.858;2022-09-09T00:06:32;32.30;30.31;34.01;;
69609;Laerm;56815;52.320;4.858;2022-09-09T00:06:49;32.06;30.28;35.03;;
69609;Laerm;56815;52.320;4.858;2022-09-09T00:07:31;31.98;29.88;38.00;;
69609;Laerm;56815;52.320;4.858;2022-09-09T00:07:47;33.13;30.26;42.27;;
69609;Laerm;56815;52.320;4.858;2022-09-09T00:07:59;32.92;31.08;35.83;;
69609;Laerm;56815;52.320;4.858;2022-09-09T00:08:20;32.83;30.91;35.55;;
69609;Laerm;56815;52.320;4.858;2022-09-09T00:09:21;33.48;31.07;37.31;;
69609;Laerm;56815;52.320;4.858;2022-09-09T00:09:38;34.89;31.89;38.86;;
69609;Laerm;56815;52.320;4.858;2022-09-09T00:10:28;34.61;31.78;38.66;;
69609;Laerm;56815;52.320;4.858;2022-09-09T00:10:39;32.31;30.31;35.32;;
69609;Laerm;56815;52.320;4.858;2022-09-09T00:10:54;32.51;30.83;34.26;;
69609;Laerm;56815;52.320;4.858;2022-09-09T00:11:08;32.31;30.68;34.93;;
69609;Laerm;56815;52.320;4.858;2022-09-09T00:11:21;31.71;29.95;36.45;;
69609;Laerm;56815;52.320;4.858;2022-09-09T00:11:59;32.45;30.42;35.06;;
69609;Laerm;56815;52.320;4.858;2022-09-09T00:12:15;32.37;30.18;36.90;;
69609;Laerm;56815;52.320;4.858;2022-09-09T00:12:34;32.39;30.37;36.47;;
69609;Laerm;56815;52.320;4.858;2022-09-09T00:13:36;34.36;31.73;40.46;;
69609;Laerm;56815;52.320;4.858;2022-09-09T00:13:48;32.66;31.02;35.35;;
69609;Laerm;56815;52.320;4.858;2022-09-09T00:14:03;32.87;30.90;37.25;;
69609;Laerm;56815;52.320;4.858;2022-09-09T00:15:11;32.79;30.63;37.95;;
69609;Laerm;56815;52.320;4.858;2022-09-09T00:15:27;32.60;30.59;36.86;;
69609;Laerm;56815;52.320;4.858;2022-09-09T00:15:47;32.44;30.72;35.17;;
69609;Laerm;56815;52.320;4.858;2022-09-09T00:16:08;33.06;30.83;39.21;;
69609;Laerm;56815;52.320;4.858;2022-09-09T00:16:27;32.54;30.09;40.32;;
69609;Laerm;56815;52.320;4.858;2022-09-09T00:16:41;32.05;30.31;36.50;;
69609;Laerm;56815;52.320;4.858;2022-09-09T00:16:56;32.23;30.17;43.93;;
69609;Laerm;56815;52.320;4.858;2022-09-09T00:17:14;32.60;30.41;39.05;;
69609;Laerm;56815;52.320;4.858;2022-09-09T00:18:06;33.13;31.02;36.40;;
69609;Laerm;56815;52.320;4.858;2022-09-09T00:19:12;34.64;31.54;38.97;;
69609;Laerm;56815;52.320;4.858;2022-09-09T00:19:58;33.75;31.06;37.02;;
69609;Laerm;56815;52.320;4.858;2022-09-09T00:20:14;34.28;31.78;39.08;;
69609;Laerm;56815;52.320;4.858;2022-09-09T00:21:07;34.95;32.02;42.04;;
69609;Laerm;56815;52.320;4.858;2022-09-09T00:21:10;34.27;32.16;37.63;;
69609;Laerm;56815;52.320;4.858;2022-09-09T00:21:23;35.24;32.48;39.27;;
69609;Laerm;56815;52.320;4.858;2022-09-09T00:21:37;35.34;31.86;38.71;;
69609;Laerm;56815;52.320;4.858;2022-09-09T00:22:17;32.94;31.09;36.41;;
69609;Laerm;56815;52.320;4.858;2022-09-09T00:22:28;33.35;30.86;35.16;;
69609;Laerm;56815;52.320;4.858;2022-09-09T00:22:43;32.53;31.03;34.46;;
69609;Laerm;56815;52.320;4.858;2022-09-09T00:23:12;32.27;30.44;33.91;;
69609;Laerm;56815;52.320;4.858;2022-09-09T00:23:25;32.44;30.29;36.71;;
69609;Laerm;56815;52.320;4.858;2022-09-09T00:23:38;32.19;30.45;34.37;;
69609;Laerm;56815;52.320;4.858;2022-09-09T00:23:55;32.21;30.67;33.96;;
69609;Laerm;56815;52.320;4.858;2022-09-09T00:24:09;32.38;30.35;34.50;;
69609;Laerm;56815;52.320;4.858;2022-09-09T00:24:28;31.88;30.09;33.78;;
69609;Laerm;56815;52.320;4.858;2022-09-09T00:24:42;31.89;29.98;34.00;;
69609;Laerm;56815;52.320;4.858;2022-09-09T00:24:54;32.64;30.43;42.65;;
69609;Laerm;56815;52.320;4.858;2022-09-09T00:25:12;31.72;29.96;39.01;;
69609;Laerm;56815;52.320;4.858;2022-09-09T00:25:31;33.31;30.28;42.97;;
69609;Laerm;56815;52.320;4.858;2022-09-09T00:26:12;32.65;30.73;35.13;;
69609;Laerm;56815;52.320;4.858;2022-09-09T00:26:48;32.24;30.29;34.56;;
69609;Laerm;56815;52.320;4.858;2022-09-09T00:27:02;33.05;30.86;38.47;;
69609;Laerm;56815;52.320;4.858;2022-09-09T00:27:42;32.66;30.80;35.87;;
69609;Laerm;56815;52.320;4.858;2022-09-09T00:27:54;32.65;30.84;34.68;;
69609;Laerm;56815;52.320;4.858;2022-09-09T00:28:09;32.67;30.93;34.60;;
69609;Laerm;56815;52.320;4.858;2022-09-09T00:28:24;32.57;30.86;34.31;;
69609;Laerm;56815;52.320;4.858;2022-09-09T00:28:38;32.35;30.59;34.49;;
69609;Laerm;56815;52.320;4.858;2022-09-09T00:28:55;32.68;30.66;36.40;;
69609;Laerm;56815;52.320;4.858;2022-09-09T00:29:14;31.95;30.01;34.65;;
69609;Laerm;56815;52.320;4.858;2022-09-09T00:30:31;33.12;30.15;51.62;;
69609;Laerm;56815;52.320;4.858;2022-09-09T00:30:44;32.68;30.44;35.03;;
69609;Laerm;56815;52.320;4.858;2022-09-09T00:31:00;32.66;30.40;35.47;;
69609;Laerm;56815;52.320;4.858;2022-09-09T00:31:18;31.92;30.24;36.39;;
69609;Laerm;56815;52.320;4.858;2022-09-09T00:31:31;32.12;30.01;39.79;;
69609;Laerm;56815;52.320;4.858;2022-09-09T00:31:41;31.85;29.83;36.86;;
69609;Laerm;56815;52.320;4.858;2022-09-09T00:31:54;32.47;30.28;43.40;;
69609;Laerm;56815;52.320;4.858;2022-09-09T00:32:12;32.80;30.69;35.23;;
69609;Laerm;56815;52.320;4.858;2022-09-09T00:32:24;32.99;31.05;35.22;;
69609;Laerm;56815;52.320;4.858;2022-09-09T00:32:37;32.31;30.59;36.30;;
69609;Laerm;56815;52.320;4.858;2022-09-09T00:32:48;32.57;30.81;34.97;;
69609;Laerm;56815;52.320;4.858;2022-09-09T00:33:00;33.02;30.57;43.38;;
69609;Laerm;56815;52.320;4.858;2022-09-09T00:33:12;32.00;29.97;34.05;;
69609;Laerm;56815;52.320;4.858;2022-09-09T00:33:25;32.28;30.40;36.49;;
69609;Laerm;56815;52.320;4.858;2022-09-09T00:33:36;32.37;30.11;36.08;;
69609;Laerm;56815;52.320;4.858;2022-09-09T00:33:48;32.64;30.65;38.54;;
69609;Laerm;56815;52.320;4.858;2022-09-09T00:34:32;32.18;29.64;34.19;;
69609;Laerm;56815;52.320;4.858;2022-09-09T00:34:42;32.84;30.31;34.67;;
69609;Laerm;56815;52.320;4.858;2022-09-09T00:35:10;32.46;30.20;34.46;;
69609;Laerm;56815;52.320;4.858;2022-09-09T00:35:18;32.22;30.22;36.40;;
69609;Laerm;56815;52.320;4.858;2022-09-09T00:35:36;32.40;30.74;34.40;;
69609;Laerm;56815;52.320;4.858;2022-09-09T00:35:49;32.14;30.13;34.92;;
69609;Laerm;56815;52.320;4.858;2022-09-09T00:36:00;32.16;30.63;36.77;;
69609;Laerm;56815;52.320;4.858;2022-09-09T00:36:14;36.30;30.38;56.67;;
69609;Laerm;56815;52.320;4.858;2022-09-09T00:36:27;32.07;30.55;33.56;;
69609;Laerm;56815;52.320;4.858;2022-09-09T00:36:42;32.69;30.70;36.04;;
69609;Laerm;56815;52.320;4.858;2022-09-09T00:36:54;32.96;31.08;35.27;;
69609;Laerm;56815;52.320;4.858;2022-09-09T00:37:07;32.94;30.76;35.30;;
69609;Laerm;56815;52.320;4.858;2022-09-09T00:37:19;32.54;30.28;35.05;;
69609;Laerm;56815;52.320;4.858;2022-09-09T00:37:31;32.29;30.43;35.09;;
69609;Laerm;56815;52.320;4.858;2022-09-09T00:37:42;32.60;30.58;34.13;;
69609;Laerm;56815;52.320;4.858;2022-09-09T00:37:54;35.69;31.19;51.55;;
69609;Laerm;56815;52.320;4.858;2022-09-09T00:38:10;33.10;31.32;36.43;;
69609;Laerm;56815;52.320;4.858;2022-09-09T00:38:42;33.00;30.80;43.65;;
69609;Laerm;56815;52.320;4.858;2022-09-09T00:38:56;32.66;30.77;36.08;;
69609;Laerm;56815;52.320;4.858;2022-09-09T00:39:12;33.41;30.77;36.97;;
69609;Laerm;56815;52.320;4.858;2022-09-09T00:39:29;32.16;30.28;35.40;;
69609;Laerm;56815;52.320;4.858;2022-09-09T00:39:42;32.70;30.16;38.43;;
69609;Laerm;56815;52.320;4.858;2022-09-09T00:39:55;32.46;30.62;34.85;;
69609;Laerm;56815;52.320;4.858;2022-09-09T00:40:40;31.54;29.61;34.14;;
69609;Laerm;56815;52.320;4.858;2022-09-09T00:40:53;32.54;30.26;37.89;;
69609;Laerm;56815;52.320;4.858;2022-09-09T00:41:01;31.59;29.46;37.32;;
69609;Laerm;56815;52.320;4.858;2022-09-09T00:41:22;32.08;29.90;36.34;;
69609;Laerm;56815;52.320;4.858;2022-09-09T00:41:44;32.26;30.08;37.14;;
69609;Laerm;56815;52.320;4.858;2022-09-09T00:42:24;32.16;30.24;33.60;;
69609;Laerm;56815;52.320;4.858;2022-09-09T00:42:41;32.52;30.61;34.80;;
69609;Laerm;56815;52.320;4.858;2022-09-09T00:42:54;33.59;31.43;36.76;;
69609;Laerm;56815;52.320;4.858;2022-09-09T00:43:35;34.01;31.92;37.26;;
69609;Laerm;56815;52.320;4.858;2022-09-09T00:43:49;33.95;31.72;36.31;;
69609;Laerm;56815;52.320;4.858;2022-09-09T00:44:19;33.37;31.22;35.34;;
69609;Laerm;56815;52.320;4.858;2022-09-09T00:44:34;33.09;30.95;35.49;;
69609;Laerm;56815;52.320;4.858;2022-09-09T00:44:52;33.70;31.49;36.26;;
69609;Laerm;56815;52.320;4.858;2022-09-09T00:45:48;33.13;30.96;35.68;;
69609;Laerm;56815;52.320;4.858;2022-09-09T00:47:49;36.63;32.19;41.23;;
69609;Laerm;56815;52.320;4.858;2022-09-09T00:48:01;36.50;32.19;43.17;;
69609;Laerm;56815;52.320;4.858;2022-09-09T00:48:13;34.94;32.22;39.19;;
69609;Laerm;56815;52.320;4.858;2022-09-09T00:48:27;34.22;32.00;37.33;;
69609;Laerm;56815;52.320;4.858;2022-09-09T00:48:52;33.44;31.27;37.01;;
69609;Laerm;56815;52.320;4.858;2022-09-09T00:49:37;31.93;29.65;34.70;;
69609;Laerm;56815;52.320;4.858;2022-09-09T00:50:20;31.99;29.72;34.51;;
69609;Laerm;56815;52.320;4.858;2022-09-09T00:50:59;31.32;29.47;33.60;;
69609;Laerm;56815;52.320;4.858;2022-09-09T00:51:15;31.40;29.84;32.96;;
69609;Laerm;56815;52.320;4.858;2022-09-09T00:51:35;31.75;29.83;34.81;;
69609;Laerm;56815;52.320;4.858;2022-09-09T00:52:45;32.59;30.56;34.18;;
69609;Laerm;56815;52.320;4.858;2022-09-09T00:54:18;32.07;29.64;34.10;;
69609;Laerm;56815;52.320;4.858;2022-09-09T00:54:49;32.90;31.10;35.26;;
69609;Laerm;56815;52.320;4.858;2022-09-09T00:55:48;31.73;30.32;34.06;;
69609;Laerm;56815;52.320;4.858;2022-09-09T00:56:20;32.05;30.27;34.20;;
69609;Laerm;56815;52.320;4.858;2022-09-09T00:56:35;32.19;30.14;34.59;;
69609;Laerm;56815;52.320;4.858;2022-09-09T00:57:22;31.94;29.93;34.12;;
69609;Laerm;56815;52.320;4.858;2022-09-09T00:57:36;31.53;29.87;33.60;;
69609;Laerm;56815;52.320;4.858;2022-09-09T00:57:47;31.51;30.05;33.25;;
69609;Laerm;56815;52.320;4.858;2022-09-09T00:57:58;31.52;30.06;33.00;;
69609;Laerm;56815;52.320;4.858;2022-09-09T00:58:09;31.56;30.04;33.08;;
69609;Laerm;56815;52.320;4.858;2022-09-09T00:58:19;31.21;29.61;32.68;;
69609;Laerm;56815;52.320;4.858;2022-09-09T00:58:29;31.32;29.84;33.38;;
69609;Laerm;56815;52.320;4.858;2022-09-09T00:58:43;31.67;30.04;34.99;;
69609;Laerm;56815;52.320;4.858;2022-09-09T00:59:04;39.93;29.54;52.25;;
69609;Laerm;56815;52.320;4.858;2022-09-09T00:59:43;31.57;29.77;33.93;;
69609;Laerm;56815;52.320;4.858;2022-09-09T01:00:15;31.62;29.46;33.56;;
69609;Laerm;56815;52.320;4.858;2022-09-09T01:00:31;31.91;29.90;37.93;;
69609;Laerm;56815;52.320;4.858;2022-09-09T01:01:02;32.66;30.26;48.34;;
69609;Laerm;56815;52.320;4.858;2022-09-09T01:01:14;32.41;29.97;41.36;;
69609;Laerm;56815;52.320;4.858;2022-09-09T01:01:25;35.43;30.33;52.44;;
69609;Laerm;56815;52.320;4.858;2022-09-09T01:01:35;32.89;30.44;45.54;;
69609;Laerm;56815;52.320;4.858;2022-09-09T01:01:45;32.00;29.64;33.91;;
69609;Laerm;56815;52.320;4.858;2022-09-09T01:01:56;31.46;30.01;33.42;;
69609;Laerm;56815;52.320;4.858;2022-09-09T01:02:13;31.95;29.57;33.77;;
69609;Laerm;56815;52.320;4.858;2022-09-09T01:02:28;32.69;30.54;34.84;;
69609;Laerm;56815;52.320;4.858;2022-09-09T01:03:44;31.51;29.59;33.79;;
69609;Laerm;56815;52.320;4.858;2022-09-09T01:03:57;31.00;29.31;34.10;;
69609;Laerm;56815;52.320;4.858;2022-09-09T01:04:11;31.85;29.77;33.87;;
69609;Laerm;56815;52.320;4.858;2022-09-09T01:04:31;31.15;29.58;33.16;;
69609;Laerm;56815;52.320;4.858;2022-09-09T01:04:44;32.51;29.73;48.34;;
69609;Laerm;56815;52.320;4.858;2022-09-09T01:04:54;32.09;29.93;37.81;;
69609;Laerm;56815;52.320;4.858;2022-09-09T01:05:06;31.72;29.73;35.72;;
69609;Laerm;56815;52.320;4.858;2022-09-09T01:05:23;31.52;29.70;34.01;;
69609;Laerm;56815;52.320;4.858;2022-09-09T01:06:42;32.32;30.36;36.91;;
69609;Laerm;56815;52.320;4.858;2022-09-09T01:06:58;31.50;29.43;40.90;;
69609;Laerm;56815;52.320;4.858;2022-09-09T01:07:13;34.07;30.25;48.88;;
69609;Laerm;56815;52.320;4.858;2022-09-09T01:07:25;31.64;29.58;39.22;;
69609;Laerm;56815;52.320;4.858;2022-09-09T01:07:36;30.89;29.52;33.75;;
69609;Laerm;56815;52.320;4.858;2022-09-09T01:07:47;30.77;29.23;32.90;;
69609;Laerm;56815;52.320;4.858;2022-09-09T01:08:00;30.82;29.41;33.21;;
69609;Laerm;56815;52.320;4.858;2022-09-09T01:09:57;31.98;29.84;35.49;;
69609;Laerm;56815;52.320;4.858;2022-09-09T01:10:11;31.97;29.82;35.37;;
69609;Laerm;56815;52.320;4.858;2022-09-09T01:10:56;31.59;29.42;33.88;;
69609;Laerm;56815;52.320;4.858;2022-09-09T01:11:10;32.61;30.78;36.17;;
69609;Laerm;56815;52.320;4.858;2022-09-09T01:11:10;31.70;29.89;33.82;;
69609;Laerm;56815;52.320;4.858;2022-09-09T01:11:48;32.68;30.74;36.08;;
69609;Laerm;56815;52.320;4.858;2022-09-09T01:12:15;32.16;30.26;35.58;;
69609;Laerm;56815;52.320;4.858;2022-09-09T01:12:38;32.65;30.50;34.59;;
69609;Laerm;56815;52.320;4.858;2022-09-09T01:12:51;33.72;31.19;38.48;;
69609;Laerm;56815;52.320;4.858;2022-09-09T01:13:02;33.34;31.17;37.57;;
69609;Laerm;56815;52.320;4.858;2022-09-09T01:13:26;32.87;31.08;37.54;;
69609;Laerm;56815;52.320;4.858;2022-09-09T01:13:40;33.00;31.04;36.95;;
69609;Laerm;56815;52.320;4.858;2022-09-09T01:14:00;33.13;30.80;36.11;;
69609;Laerm;56815;52.320;4.858;2022-09-09T01:14:35;32.98;31.18;34.86;;
69609;Laerm;56815;52.320;4.858;2022-09-09T01:14:49;33.16;30.94;38.73;;
69609;Laerm;56815;52.320;4.858;2022-09-09T01:15:22;33.15;31.22;35.44;;
69609;Laerm;56815;52.320;4.858;2022-09-09T01:15:34;34.19;31.42;39.00;;
69609;Laerm;56815;52.320;4.858;2022-09-09T01:15:45;34.39;32.64;36.44;;
69609;Laerm;56815;52.320;4.858;2022-09-09T01:15:59;34.30;32.44;36.41;;
69609;Laerm;56815;52.320;4.858;2022-09-09T01:16:10;33.86;31.55;35.82;;
69609;Laerm;56815;52.320;4.858;2022-09-09T01:16:21;34.09;32.10;36.02;;
69609;Laerm;56815;52.320;4.858;2022-09-09T01:16:31;34.15;31.58;37.22;;
69609;Laerm;56815;52.320;4.858;2022-09-09T01:16:42;33.81;31.60;36.60;;
69609;Laerm;56815;52.320;4.858;2022-09-09T01:16:56;32.93;31.06;36.20;;
69609;Laerm;56815;52.320;4.858;2022-09-09T01:17:19;32.49;30.64;35.54;;
69609;Laerm;56815;52.320;4.858;2022-09-09T01:17:38;32.29;30.68;36.43;;
69609;Laerm;56815;52.320;4.858;2022-09-09T01:17:53;32.33;30.24;35.28;;
69609;Laerm;56815;52.320;4.858;2022-09-09T01:18:08;32.65;30.67;35.92;;
69609;Laerm;56815;52.320;4.858;2022-09-09T01:18:21;32.72;31.13;35.61;;
69609;Laerm;56815;52.320;4.858;2022-09-09T01:18:35;32.44;30.50;34.55;;
69609;Laerm;56815;52.320;4.858;2022-09-09T01:18:47;32.56;30.13;44.77;;
69609;Laerm;56815;52.320;4.858;2022-09-09T01:18:59;33.26;30.87;35.74;;
69609;Laerm;56815;52.320;4.858;2022-09-09T01:19:11;32.80;30.95;35.01;;
69609;Laerm;56815;52.320;4.858;2022-09-09T01:19:30;32.66;30.79;34.37;;
69609;Laerm;56815;52.320;4.858;2022-09-09T01:20:26;32.56;30.11;36.62;;
69609;Laerm;56815;52.320;4.858;2022-09-09T01:21:03;33.15;30.85;37.87;;
69609;Laerm;56815;52.320;4.858;2022-09-09T01:21:50;33.54;30.44;37.94;;
69609;Laerm;56815;52.320;4.858;2022-09-09T01:22:18;35.69;30.02;57.43;;
69609;Laerm;56815;52.320;4.858;2022-09-09T01:22:37;32.50;30.31;36.35;;
69609;Laerm;56815;52.320;4.858;2022-09-09T01:22:56;32.60;30.34;35.25;;
69609;Laerm;56815;52.320;4.858;2022-09-09T01:23:20;32.33;30.40;36.12;;
69609;Laerm;56815;52.320;4.858;2022-09-09T01:23:58;32.16;30.15;35.53;;
69609;Laerm;56815;52.320;4.858;2022-09-09T01:24:17;31.73;29.05;38.49;;
69609;Laerm;56815;52.320;4.858;2022-09-09T01:24:47;32.26;30.10;36.37;;
69609;Laerm;56815;52.320;4.858;2022-09-09T01:26:10;31.97;29.75;34.78;;
69609;Laerm;56815;52.320;4.858;2022-09-09T01:26:39;31.69;29.85;35.93;;
69609;Laerm;56815;52.320;4.858;2022-09-09T01:26:58;31.65;29.65;37.03;;
69609;Laerm;56815;52.320;4.858;2022-09-09T01:27:10;31.57;29.23;36.77;;
69609;Laerm;56815;52.320;4.858;2022-09-09T01:27:22;31.92;30.00;33.60;;
69609;Laerm;56815;52.320;4.858;2022-09-09T01:27:33;32.14;29.90;45.31;;
69609;Laerm;56815;52.320;4.858;2022-09-09T01:27:44;31.69;29.65;33.71;;
69609;Laerm;56815;52.320;4.858;2022-09-09T01:27:59;31.70;30.19;33.83;;
69609;Laerm;56815;52.320;4.858;2022-09-09T01:28:12;31.35;29.90;35.98;;
69609;Laerm;56815;52.320;4.858;2022-09-09T01:28:25;32.45;30.04;38.20;;
69609;Laerm;56815;52.320;4.858;2022-09-09T01:28:36;31.86;29.45;38.23;;
69609;Laerm;56815;52.320;4.858;2022-09-09T01:28:48;31.68;30.06;33.48;;
69609;Laerm;56815;52.320;4.858;2022-09-09T01:28:59;31.89;30.13;33.81;;
69609;Laerm;56815;52.320;4.858;2022-09-09T01:29:12;32.80;30.44;35.58;;
69609;Laerm;56815;52.320;4.858;2022-09-09T01:29:23;33.98;30.70;43.06;;
69609;Laerm;56815;52.320;4.858;2022-09-09T01:29:34;32.12;30.60;33.85;;
69609;Laerm;56815;52.320;4.858;2022-09-09T01:29:45;32.33;29.81;37.02;;
69609;Laerm;56815;52.320;4.858;2022-09-09T01:29:56;32.02;30.53;33.35;;
69609;Laerm;56815;52.320;4.858;2022-09-09T01:30:10;32.40;30.15;35.05;;
69609;Laerm;56815;52.320;4.858;2022-09-09T01:30:21;33.83;32.03;35.93;;
69609;Laerm;56815;52.320;4.858;2022-09-09T01:30:32;33.82;31.75;36.23;;
69609;Laerm;56815;52.320;4.858;2022-09-09T01:30:43;33.22;31.11;38.33;;
69609;Laerm;56815;52.320;4.858;2022-09-09T01:30:54;32.08;30.80;33.92;;
69609;Laerm;56815;52.320;4.858;2022-09-09T01:31:05;32.50;30.54;41.52;;
69609;Laerm;56815;52.320;4.858;2022-09-09T01:31:26;32.44;30.77;35.86;;
69609;Laerm;56815;52.320;4.858;2022-09-09T01:31:39;32.44;30.67;34.54;;
69609;Laerm;56815;52.320;4.858;2022-09-09T01:31:55;31.63;30.01;33.82;;
69609;Laerm;56815;52.320;4.858;2022-09-09T01:32:45;31.74;30.07;36.98;;
69609;Laerm;56815;52.320;4.858;2022-09-09T01:32:56;31.36;29.82;33.75;;
69609;Laerm;56815;52.320;4.858;2022-09-09T01:33:17;31.70;29.86;34.15;;
69609;Laerm;56815;52.320;4.858;2022-09-09T01:33:28;30.92;29.44;32.82;;
69609;Laerm;56815;52.320;4.858;2022-09-09T01:33:38;31.19;29.73;33.44;;
69609;Laerm;56815;52.320;4.858;2022-09-09T01:33:48;32.31;30.53;39.28;;
69609;Laerm;56815;52.320;4.858;2022-09-09T01:33:59;32.03;30.34;33.75;;
69609;Laerm;56815;52.320;4.858;2022-09-09T01:34:12;31.87;30.53;35.58;;
69609;Laerm;56815;52.320;4.858;2022-09-09T01:34:25;32.47;30.32;35.09;;
69609;Laerm;56815;52.320;4.858;2022-09-09T01:34:36;33.46;30.46;49.68;;
69609;Laerm;56815;52.320;4.858;2022-09-09T01:34:48;32.24;30.59;35.81;;
69609;Laerm;56815;52.320;4.858;2022-09-09T01:35:00;32.60;30.84;34.34;;
69609;Laerm;56815;52.320;4.858;2022-09-09T01:35:18;32.76;30.92;35.36;;
69609;Laerm;56815;52.320;4.858;2022-09-09T01:35:50;33.15;30.74;48.29;;
69609;Laerm;56815;52.320;4.858;2022-09-09T01:36:07;32.28;30.37;37.91;;
69609;Laerm;56815;52.320;4.858;2022-09-09T01:36:32;31.85;30.05;37.35;;
69609;Laerm;56815;52.320;4.858;2022-09-09T01:36:51;32.77;30.09;47.45;;
69609;Laerm;56815;52.320;4.858;2022-09-09T01:37:07;34.48;31.32;42.76;;
69609;Laerm;56815;52.320;4.858;2022-09-09T01:37:18;35.65;32.30;43.56;;
69609;Laerm;56815;52.320;4.858;2022-09-09T01:37:28;35.79;31.80;42.73;;
69609;Laerm;56815;52.320;4.858;2022-09-09T01:37:38;35.93;32.61;40.89;;
69609;Laerm;56815;52.320;4.858;2022-09-09T01:37:49;34.72;31.79;37.77;;
69609;Laerm;56815;52.320;4.858;2022-09-09T01:37:59;34.41;31.45;43.52;;
69609;Laerm;56815;52.320;4.858;2022-09-09T01:38:10;34.12;31.55;40.98;;
69609;Laerm;56815;52.320;4.858;2022-09-09T01:38:20;32.85;30.61;35.41;;
69609;Laerm;56815;52.320;4.858;2022-09-09T01:38:31;33.23;31.10;35.46;;
69609;Laerm;56815;52.320;4.858;2022-09-09T01:38:42;32.86;30.83;35.60;;
69609;Laerm;56815;52.320;4.858;2022-09-09T01:38:53;32.94;31.10;34.58;;
69609;Laerm;56815;52.320;4.858;2022-09-09T01:39:03;33.84;31.29;36.96;;
69609;Laerm;56815;52.320;4.858;2022-09-09T01:39:13;37.17;33.20;42.34;;
69609;Laerm;56815;52.320;4.858;2022-09-09T01:39:24;37.43;34.37;42.44;;
69609;Laerm;56815;52.320;4.858;2022-09-09T01:39:35;35.95;33.09;38.80;;
69609;Laerm;56815;52.320;4.858;2022-09-09T01:39:47;36.78;33.30;44.13;;
69609;Laerm;56815;52.320;4.858;2022-09-09T01:39:57;35.93;32.99;40.13;;
69609;Laerm;56815;52.320;4.858;2022-09-09T01:40:07;35.14;32.13;39.77;;
69609;Laerm;56815;52.320;4.858;2022-09-09T01:40:18;35.33;32.37;41.61;;
69609;Laerm;56815;52.320;4.858;2022-09-09T01:40:28;34.86;32.66;37.96;;
69609;Laerm;56815;52.320;4.858;2022-09-09T01:40:38;34.66;32.54;37.41;;
69609;Laerm;56815;52.320;4.858;2022-09-09T01:40:49;34.44;32.39;36.51;;
69609;Laerm;56815;52.320;4.858;2022-09-09T01:41:02;33.90;31.18;43.94;;
69609;Laerm;56815;52.320;4.858;2022-09-09T01:41:12;33.75;31.72;35.86;;
69609;Laerm;56815;52.320;4.858;2022-09-09T01:41:23;34.56;32.72;43.24;;
69609;Laerm;56815;52.320;4.858;2022-09-09T01:41:33;33.97;31.72;36.12;;
69609;Laerm;56815;52.320;4.858;2022-09-09T01:41:43;34.74;32.76;37.83;;
69609;Laerm;56815;52.320;4.858;2022-09-09T01:41:53;36.66;32.67;46.41;;
69609;Laerm;56815;52.320;4.858;2022-09-09T01:42:05;40.37;33.18;49.92;;
69609;Laerm;56815;52.320;4.858;2022-09-09T01:42:16;43.83;35.04;55.87;;
69609;Laerm;56815;52.320;4.858;2022-09-09T01:42:27;44.65;35.39;53.82;;
69609;Laerm;56815;52.320;4.858;2022-09-09T01:42:37;41.95;34.90;48.42;;
69609;Laerm;56815;52.320;4.858;2022-09-09T01:42:47;40.69;34.38;48.89;;
69609;Laerm;56815;52.320;4.858;2022-09-09T01:42:58;39.28;34.37;45.12;;
69609;Laerm;56815;52.320;4.858;2022-09-09T01:43:08;40.20;35.17;46.48;;
69609;Laerm;56815;52.320;4.858;2022-09-09T01:43:19;38.19;33.36;45.79;;
69609;Laerm;56815;52.320;4.858;2022-09-09T01:43:30;37.05;32.85;41.30;;
69609;Laerm;56815;52.320;4.858;2022-09-09T01:43:40;34.07;31.75;37.61;;
69609;Laerm;56815;52.320;4.858;2022-09-09T01:43:52;33.41;31.36;35.41;;
69609;Laerm;56815;52.320;4.858;2022-09-09T01:44:03;33.28;31.54;35.86;;
69609;Laerm;56815;52.320;4.858;2022-09-09T01:44:13;33.74;31.67;35.88;;
69609;Laerm;56815;52.320;4.858;2022-09-09T01:44:24;32.88;30.97;35.30;;
69609;Laerm;56815;52.320;4.858;2022-09-09T01:44:35;33.22;31.51;35.28;;
69609;Laerm;56815;52.320;4.858;2022-09-09T01:44:46;34.09;31.83;38.16;;
69609;Laerm;56815;52.320;4.858;2022-09-09T01:44:57;33.61;31.57;36.30;;
69609;Laerm;56815;52.320;4.858;2022-09-09T01:45:07;32.90;31.04;34.80;;
69609;Laerm;56815;52.320;4.858;2022-09-09T01:45:18;32.74;30.31;34.45;;
69609;Laerm;56815;52.320;4.858;2022-09-09T01:45:28;32.99;31.01;34.86;;
69609;Laerm;56815;52.320;4.858;2022-09-09T01:45:39;32.55;30.72;34.75;;
69609;Laerm;56815;52.320;4.858;2022-09-09T01:45:52;33.79;31.23;38.22;;
69609;Laerm;56815;52.320;4.858;2022-09-09T01:46:03;34.27;31.27;47.41;;
69609;Laerm;56815;52.320;4.858;2022-09-09T01:46:13;33.38;31.10;39.23;;
69609;Laerm;56815;52.320;4.858;2022-09-09T01:46:24;32.59;31.17;34.52;;
69609;Laerm;56815;52.320;4.858;2022-09-09T01:46:35;32.59;30.22;40.16;;
69609;Laerm;56815;52.320;4.858;2022-09-09T01:46:45;33.24;30.50;42.42;;
69609;Laerm;56815;52.320;4.858;2022-09-09T01:46:55;32.22;30.47;39.66;;
69609;Laerm;56815;52.320;4.858;2022-09-09T01:47:06;32.77;29.97;46.33;;
69609;Laerm;56815;52.320;4.858;2022-09-09T01:47:17;32.77;30.87;39.57;;
69609;Laerm;56815;52.320;4.858;2022-09-09T01:47:27;32.58;30.41;37.10;;
69609;Laerm;56815;52.320;4.858;2022-09-09T01:47:38;33.68;31.17;36.32;;
69609;Laerm;56815;52.320;4.858;2022-09-09T01:47:48;33.53;31.86;41.21;;
69609;Laerm;56815;52.320;4.858;2022-09-09T01:47:59;33.85;31.53;38.57;;
69609;Laerm;56815;52.320;4.858;2022-09-09T01:48:10;34.38;31.27;48.54;;
69609;Laerm;56815;52.320;4.858;2022-09-09T01:48:21;33.68;31.53;38.83;;
69609;Laerm;56815;52.320;4.858;2022-09-09T01:48:32;34.22;32.05;38.75;;
69609;Laerm;56815;52.320;4.858;2022-09-09T01:48:42;34.40;32.42;37.04;;
69609;Laerm;56815;52.320;4.858;2022-09-09T01:48:55;34.30;31.48;39.89;;
69609;Laerm;56815;52.320;4.858;2022-09-09T01:49:07;33.79;31.46;40.63;;
69609;Laerm;56815;52.320;4.858;2022-09-09T01:49:18;34.53;31.67;50.47;;
69609;Laerm;56815;52.320;4.858;2022-09-09T01:49:28;33.37;31.34;36.16;;
69609;Laerm;56815;52.320;4.858;2022-09-09T01:49:38;34.45;31.57;49.32;;